Time;durP1;ratioP1;P1;durP2;ratioP2;P2;SDS_P1;SDS_P2;PMS_P1;PMS_P2;Temp;Humidity;BMP_temperature;BMP_pressure;BME280_temperature;BME280_humidity;BME280_pressure;Samples;Min_cycle;Max_cycle;Signal;HPM_P1;HPM_P2
2021/06/21 00:01:46;;;;;;;21.77;12.05;;;;;;;-145.50;100.00;65435.88;4899922;29;20076;-50
2021/06/21 00:04:12;;;;;;;24.58;11.95;;;;;;;-145.50;100.00;65435.88;4891644;29;20178;-50
2021/06/21 00:06:39;;;;;;;23.67;11.73;;;;;;;-145.50;100.00;65435.88;4908304;29;20175;-50
2021/06/21 00:09:06;;;;;;;17.88;10.77;;;;;;;-145.50;100.00;65435.88;4899675;29;20052;-49
2021/06/21 00:11:33;;;;;;;21.15;11.27;;;;;;;-145.50;100.00;65435.88;4907416;29;20062;-50
2021/06/21 00:13:59;;;;;;;20.17;11.57;;;;;;;-145.50;100.00;65435.88;4899366;29;20140;-51
2021/06/21 00:16:26;;;;;;;19.88;11.30;;;;;;;-145.50;100.00;65435.88;4904693;29;20508;-52
2021/06/21 00:18:53;;;;;;;25.25;12.50;;;;;;;-145.50;100.00;65435.88;4877288;29;20056;-50
2021/06/21 00:21:20;;;;;;;19.92;11.48;;;;;;;-145.50;100.00;65435.88;4901297;29;20485;-50
2021/06/21 00:23:46;;;;;;;22.60;12.20;;;;;;;-145.50;100.00;65435.88;4900993;29;20134;-51
2021/06/21 00:26:13;;;;;;;21.88;12.88;;;;;;;-145.50;100.00;65435.88;4904282;29;20443;-49
2021/06/21 00:28:39;;;;;;;25.13;12.07;;;;;;;-145.50;100.00;65435.88;4908785;29;20201;-51
2021/06/21 00:31:06;;;;;;;17.25;11.95;;;;;;;-145.50;100.00;65435.88;4908254;29;20151;-50
2021/06/21 00:33:32;;;;;;;25.75;12.80;;;;;;;-145.50;100.00;65435.88;4895962;29;20070;-49
2021/06/21 00:35:59;;;;;;;25.02;12.88;;;;;;;-145.50;100.00;65435.88;4906075;29;20654;-50
2021/06/21 00:38:25;;;;;;;21.52;13.40;;;;;;;-145.50;100.00;65435.88;4894673;29;20147;-50
2021/06/21 00:40:52;;;;;;;24.13;13.48;;;;;;;-145.50;100.00;65435.88;4909376;29;20151;-50
2021/06/21 00:43:18;;;;;;;25.23;12.40;;;;;;;-145.50;100.00;65435.88;4893227;29;20080;-52
2021/06/21 00:45:45;;;;;;;26.65;12.98;;;;;;;-145.50;100.00;65435.88;4888511;29;20055;-50
2021/06/21 00:48:12;;;;;;;26.92;14.77;;;;;;;-145.50;100.00;65435.88;4904905;29;20052;-49
2021/06/21 00:50:39;;;;;;;35.20;15.20;;;;;;;-145.50;100.00;65435.88;4905303;29;20190;-49
2021/06/21 00:53:05;;;;;;;29.52;15.55;;;;;;;-145.50;100.00;65435.88;4904980;29;20144;-49
2021/06/21 00:55:34;;;;;;;26.95;15.15;;;;;;;-145.50;100.00;65435.88;4904286;29;20083;-50
2021/06/21 00:58:01;;;;;;;34.17;16.10;;;;;;;-145.50;100.00;65435.88;4914498;29;20075;-50
2021/06/21 01:00:28;;;;;;;27.95;15.80;;;;;;;-145.50;100.00;65435.88;4903668;29;20150;-49
2021/06/21 01:02:54;;;;;;;30.70;15.68;;;;;;;-145.50;100.00;65435.88;4889800;29;20159;-50
2021/06/21 01:05:25;;;;;;;29.00;14.07;;;;;;;-145.50;100.00;65435.88;4900098;29;20119;-50
2021/06/21 01:07:52;;;;;;;26.23;15.60;;;;;;;-145.50;100.00;65435.88;4907831;29;20505;-49
2021/06/21 01:10:23;;;;;;;29.67;15.57;;;;;;;-145.50;100.00;65435.88;4901672;29;20485;-50
2021/06/21 01:13:13;;;;;;;30.60;15.90;;;;;;;-145.50;100.00;65435.88;4898995;29;20146;-50
2021/06/21 01:15:44;;;;;;;27.92;15.93;;;;;;;-145.50;100.00;65435.88;4909366;29;20166;-50
2021/06/21 01:18:20;;;;;;;26.63;15.32;;;;;;;-145.50;100.00;65435.88;4881804;29;20194;-50
2021/06/21 01:21:16;;;;;;;26.42;15.13;;;;;;;-145.50;100.00;65435.88;4906475;29;20151;-50
2021/06/21 01:24:34;;;;;;;28.02;15.60;;;;;;;-145.50;100.00;65435.88;4884776;29;20483;-49
2021/06/21 01:27:29;;;;;;;25.42;14.50;;;;;;;-145.50;100.00;65435.88;4909723;29;20143;-52
2021/06/21 01:29:59;;;;;;;30.00;14.75;;;;;;;-145.50;100.00;65435.88;4881845;29;20139;-50
2021/06/21 01:32:45;;;;;;;26.25;15.68;;;;;;;-145.50;100.00;65435.88;4905745;29;20583;-50
2021/06/21 01:35:21;;;;;;;26.13;14.65;;;;;;;-145.50;100.00;65435.88;4893130;29;20075;-50
2021/06/21 01:37:51;;;;;;;22.08;13.55;;;;;;;-145.50;100.00;65435.88;4910493;29;20087;-50
2021/06/21 01:40:20;;;;;;;25.60;14.50;;;;;;;-145.50;100.00;65435.88;4902306;29;20059;-49
2021/06/21 01:42:51;;;;;;;26.13;15.57;;;;;;;-145.50;100.00;65435.88;4908960;29;20147;-50
2021/06/21 01:45:18;;;;;;;24.45;13.98;;;;;;;-145.50;100.00;65435.88;4903646;29;20143;-50
2021/06/21 01:47:50;;;;;;;23.20;14.35;;;;;;;-145.50;100.00;65435.88;4905024;29;20048;-50
2021/06/21 01:50:19;;;;;;;27.05;15.27;;;;;;;-145.50;100.00;65435.88;4908211;29;20086;-50
2021/06/21 01:52:50;;;;;;;26.70;15.32;;;;;;;-145.50;100.00;65435.88;4902990;29;20083;-50
2021/06/21 01:55:20;;;;;;;30.80;13.15;;;;;;;-145.50;100.00;65435.88;4909131;29;20190;-50
2021/06/21 01:57:48;;;;;;;26.58;14.82;;;;;;;-145.50;100.00;65435.88;4891989;29;20057;-51
2021/06/21 02:00:15;;;;;;;25.35;13.85;;;;;;;-145.50;100.00;65435.88;4898022;29;20056;-50
2021/06/21 02:02:42;;;;;;;21.75;12.80;;;;;;;-145.50;100.00;65435.88;4895426;29;20608;-50
2021/06/21 02:05:13;;;;;;;26.50;12.60;;;;;;;-145.50;100.00;65435.88;4904239;29;20942;-51
2021/06/21 02:07:41;;;;;;;20.88;11.88;;;;;;;-145.50;100.00;65435.88;4897353;29;20137;-50
2021/06/21 02:10:09;;;;;;;18.98;10.98;;;;;;;-145.50;100.00;65435.88;4903989;29;20139;-51
2021/06/21 02:12:36;;;;;;;22.05;11.95;;;;;;;-145.50;100.00;65435.88;4908487;29;20143;-51
2021/06/21 02:15:04;;;;;;;18.35;10.68;;;;;;;-145.50;100.00;65435.88;4902884;29;20464;-50
2021/06/21 02:17:31;;;;;;;21.30;11.32;;;;;;;-145.50;100.00;65435.88;4909895;29;20139;-51
2021/06/21 02:19:59;;;;;;;18.95;11.68;;;;;;;-145.50;100.00;65435.88;4899874;29;20144;-50
2021/06/21 02:22:29;;;;;;;19.95;10.98;;;;;;;-145.50;100.00;65435.88;4900119;29;20127;-50
2021/06/21 02:24:58;;;;;;;21.02;10.85;;;;;;;-145.50;100.00;65435.88;4899855;29;20464;-50
2021/06/21 02:27:25;;;;;;;19.08;11.07;;;;;;;-145.50;100.00;65435.88;4901597;29;20147;-50
2021/06/21 02:29:55;;;;;;;20.02;10.68;;;;;;;-145.50;100.00;65435.88;4896066;29;20056;-50
2021/06/21 02:32:22;;;;;;;17.52;10.27;;;;;;;-145.50;100.00;65435.88;4908620;29;20060;-51
2021/06/21 02:34:50;;;;;;;19.17;9.55;;;;;;;-145.50;100.00;65435.88;4908959;29;20182;-50
2021/06/21 02:37:16;;;;;;;21.77;9.73;;;;;;;-145.50;100.00;65435.88;4902488;29;20154;-51
2021/06/21 02:39:43;;;;;;;28.23;9.20;;;;;;;-145.50;100.00;65435.88;4911750;29;20158;-50
2021/06/21 02:42:11;;;;;;;24.55;9.27;;;;;;;-145.50;100.00;65435.88;4905035;29;20487;-51
2021/06/21 02:44:38;;;;;;;19.95;8.82;;;;;;;-145.50;100.00;65435.88;4912148;29;20167;-50
2021/06/21 02:47:05;;;;;;;15.68;8.25;;;;;;;-145.50;100.00;65435.88;4905146;29;20135;-49
2021/06/21 02:49:32;;;;;;;17.35;9.15;;;;;;;-145.50;100.00;65435.88;4911928;29;20139;-50
2021/06/21 02:52:04;;;;;;;14.70;8.35;;;;;;;-145.50;100.00;65435.88;4900054;29;20080;-49
2021/06/21 02:55:06;;;;;;;19.20;8.55;;;;;;;-145.50;100.00;65435.88;4904499;29;20383;-50
2021/06/21 02:57:40;;;;;;;21.52;8.70;;;;;;;-145.50;100.00;65435.88;4907837;29;20101;-50
2021/06/21 03:00:08;;;;;;;13.77;8.43;;;;;;;-145.50;100.00;65435.88;4887965;29;20469;-52
2021/06/21 03:02:37;;;;;;;18.40;7.47;;;;;;;-145.50;100.00;65435.88;4909321;29;20127;-49
2021/06/21 03:05:06;;;;;;;15.38;7.80;;;;;;;-145.50;100.00;65435.88;4902412;29;20087;-51
2021/06/21 03:07:33;;;;;;;11.75;6.63;;;;;;;-145.50;100.00;65435.88;4907462;29;20139;-50
2021/06/21 03:10:00;;;;;;;14.77;8.20;;;;;;;-145.50;100.00;65435.88;4904278;29;20148;-50
2021/06/21 03:12:29;;;;;;;12.73;7.00;;;;;;;-145.50;100.00;65435.88;4906214;29;20116;-51
2021/06/21 03:14:56;;;;;;;16.15;7.20;;;;;;;-145.50;100.00;65435.88;4905073;29;20111;-51
2021/06/21 03:17:23;;;;;;;13.23;6.00;;;;;;;-145.50;100.00;65435.88;4903535;29;20170;-50
2021/06/21 03:19:50;;;;;;;16.48;6.38;;;;;;;-145.50;100.00;65435.88;4903838;29;20461;-50
2021/06/21 03:22:21;;;;;;;11.20;5.80;;;;;;;-145.50;100.00;65435.88;4901718;29;20138;-52
2021/06/21 03:24:53;;;;;;;10.95;6.22;;;;;;;-145.50;100.00;65435.88;4909875;29;20099;-53
2021/06/21 03:27:31;;;;;;;13.35;5.78;;;;;;;-145.50;100.00;65435.88;4903920;29;20090;-50
2021/06/21 03:29:59;;;;;;;14.52;6.03;;;;;;;-145.50;100.00;65435.88;4907944;29;20139;-50
2021/06/21 03:32:29;;;;;;;9.63;5.95;;;;;;;-145.50;100.00;65435.88;4901525;29;20412;-50
2021/06/21 03:34:57;;;;;;;11.48;6.05;;;;;;;-145.50;100.00;65435.88;4899503;29;20091;-51
2021/06/21 03:37:24;;;;;;;16.17;5.93;;;;;;;-145.50;100.00;65435.88;4910036;29;20092;-51
2021/06/21 03:39:51;;;;;;;13.30;5.47;;;;;;;-145.50;100.00;65435.88;4905641;29;20262;-53
2021/06/21 03:42:18;;;;;;;12.82;5.75;;;;;;;-145.50;100.00;65435.88;4909383;29;20151;-51
2021/06/21 03:44:45;;;;;;;10.60;5.22;;;;;;;-145.50;100.00;65435.88;4894802;29;20099;-50
2021/06/21 03:47:15;;;;;;;13.75;5.38;;;;;;;-145.50;100.00;65435.88;4903580;29;20127;-50
2021/06/21 03:49:48;;;;;;;12.35;5.60;;;;;;;-145.50;100.00;65435.88;4902881;29;20060;-50
2021/06/21 03:52:35;;;;;;;14.60;5.63;;;;;;;-145.50;100.00;65435.88;4910366;29;20146;-48
2021/06/21 03:55:09;;;;;;;8.70;4.70;;;;;;;-145.50;100.00;65435.88;4890033;29;20139;-49
2021/06/21 03:58:02;;;;;;;13.18;5.38;;;;;;;-145.50;100.00;65435.88;4910994;29;20127;-51
2021/06/21 04:00:49;;;;;;;8.90;4.78;;;;;;;-145.50;100.00;65435.88;4882635;29;20127;-52
2021/06/21 04:03:37;;;;;;;13.07;4.72;;;;;;;-145.50;100.00;65435.88;4899528;29;20134;-50
2021/06/21 04:06:24;;;;;;;13.60;4.65;;;;;;;-145.50;100.00;65435.88;4902582;29;20059;-49
2021/06/21 04:09:11;;;;;;;10.75;4.70;;;;;;;-145.50;100.00;65435.88;4910776;29;20283;-49
2021/06/21 04:11:58;;;;;;;9.77;4.28;;;;;;;-145.50;100.00;65435.88;4886994;29;20063;-49
2021/06/21 04:14:46;;;;;;;13.48;4.63;;;;;;;-145.50;100.00;65435.88;4892978;29;20520;-50
2021/06/21 04:17:35;;;;;;;8.38;3.97;;;;;;;-145.50;100.00;65435.88;4894716;29;20590;-49
2021/06/21 04:20:24;;;;;;;9.27;4.50;;;;;;;-145.50;100.00;65435.88;4905053;29;20142;-48
2021/06/21 04:23:12;;;;;;;13.23;4.85;;;;;;;-145.50;100.00;65435.88;4900328;29;20095;-49
2021/06/21 04:25:59;;;;;;;10.73;4.77;;;;;;;-145.50;100.00;65435.88;4903957;29;20143;-48
2021/06/21 04:28:47;;;;;;;13.07;5.30;;;;;;;-145.50;100.00;65435.88;4893669;29;20932;-49
2021/06/21 04:31:34;;;;;;;11.60;4.35;;;;;;;-145.50;100.00;65435.88;4897345;29;20066;-49
2021/06/21 04:34:21;;;;;;;12.77;4.13;;;;;;;-145.50;100.00;65435.88;4903348;29;20048;-47
2021/06/21 04:37:08;;;;;;;8.65;3.58;;;;;;;-145.50;100.00;65435.88;4901496;29;21041;-48
2021/06/21 04:39:55;;;;;;;8.18;4.45;;;;;;;-145.50;100.00;65435.88;4904938;29;20136;-49
2021/06/21 04:42:43;;;;;;;8.75;3.30;;;;;;;-145.50;100.00;65435.88;4885386;29;20148;-48
2021/06/21 04:45:31;;;;;;;8.38;4.00;;;;;;;-145.50;100.00;65435.88;4905931;29;20584;-52
2021/06/21 04:48:20;;;;;;;6.38;3.85;;;;;;;-145.50;100.00;65435.88;4892376;29;20108;-48
2021/06/21 04:51:07;;;;;;;6.03;3.03;;;;;;;-145.50;100.00;65435.88;4909170;29;20135;-49
2021/06/21 04:53:54;;;;;;;8.13;3.88;;;;;;;-145.50;100.00;65435.88;4902483;29;20062;-49
2021/06/21 04:56:41;;;;;;;7.18;3.88;;;;;;;-145.50;100.00;65435.88;4896268;29;20092;-50
2021/06/21 04:59:28;;;;;;;7.32;3.97;;;;;;;-145.50;100.00;65435.88;4890228;29;20127;-49
2021/06/21 05:02:15;;;;;;;6.20;3.47;;;;;;;-145.50;100.00;65435.88;4897852;29;20473;-48
2021/06/21 05:05:03;;;;;;;6.95;3.67;;;;;;;-145.50;100.00;65435.88;4888399;29;20548;-49
2021/06/21 05:07:51;;;;;;;6.47;3.22;;;;;;;-145.50;100.00;65435.88;4900541;29;20424;-48
2021/06/21 05:10:39;;;;;;;6.75;3.35;;;;;;;-145.50;100.00;65435.88;4891145;29;20056;-49
2021/06/21 05:13:26;;;;;;;5.45;2.90;;;;;;;-145.50;100.00;65435.88;4908861;29;20134;-48
2021/06/21 05:16:14;;;;;;;8.13;3.33;;;;;;;-145.50;100.00;65435.88;4897281;29;20108;-49
2021/06/21 05:19:01;;;;;;;;;;;;;;;-145.50;100.00;65435.88;4893992;29;20052;-48
2021/06/21 05:21:48;;;;;;;3.65;2.35;;;;;;;-145.50;100.00;65435.88;4892092;29;20022;-49
2021/06/21 05:24:35;;;;;;;6.63;2.80;;;;;;;-145.50;100.00;65435.88;4899190;29;20084;-50
2021/06/21 05:27:22;;;;;;;7.53;2.72;;;;;;;-145.50;100.00;65435.88;4900339;29;20144;-49
2021/06/21 05:30:10;;;;;;;5.43;2.92;;;;;;;-145.50;100.00;65435.88;4908200;29;20485;-47
2021/06/21 05:32:57;;;;;;;5.57;2.63;;;;;;;-145.50;100.00;65435.88;4896360;29;20134;-48
2021/06/21 05:35:44;;;;;;;6.18;2.70;;;;;;;-145.50;100.00;65435.88;4897214;29;20135;-49
2021/06/21 05:38:31;;;;;;;5.65;2.35;;;;;;;-145.50;100.00;65435.88;4895637;29;20055;-49
2021/06/21 05:41:18;;;;;;;3.88;2.28;;;;;;;-145.50;100.00;65435.88;4895926;29;20128;-48
2021/06/21 05:44:05;;;;;;;6.90;2.90;;;;;;;-145.50;100.00;65435.88;4892793;29;20483;-48
2021/06/21 05:46:52;;;;;;;4.68;2.40;;;;;;;-145.50;100.00;65435.88;4902819;29;20183;-50
2021/06/21 05:49:39;;;;;;;4.05;1.88;;;;;;;-145.50;100.00;65435.88;4883781;29;20056;-52
2021/06/21 05:52:26;;;;;;;5.70;2.80;;;;;;;-145.50;100.00;65435.88;4895058;29;20521;-47
2021/06/21 05:55:13;;;;;;;8.63;3.78;;;;;;;-145.50;100.00;65435.88;4893274;29;20079;-49
2021/06/21 05:58:01;;;;;;;7.38;3.90;;;;;;;-145.50;100.00;65435.88;4901273;29;20051;-48
2021/06/21 06:00:48;;;;;;;3.77;2.00;;;;;;;-145.50;100.00;65435.88;4885671;29;20088;-48
2021/06/21 06:03:35;;;;;;;3.15;1.80;;;;;;;-145.50;100.00;65435.88;4897673;29;20294;-48
2021/06/21 06:06:22;;;;;;;4.30;1.98;;;;;;;-145.50;100.00;65435.88;4888626;29;20091;-49
2021/06/21 06:09:09;;;;;;;4.93;2.17;;;;;;;-145.50;100.00;65435.88;4899298;29;20139;-51
2021/06/21 06:11:56;;;;;;;4.63;2.30;;;;;;;-145.50;100.00;65435.88;4887306;29;20685;-48
2021/06/21 06:14:43;;;;;;;3.15;1.80;;;;;;;-145.50;100.00;65435.88;4892577;29;20048;-49
2021/06/21 06:17:30;;;;;;;5.60;1.90;;;;;;;-145.50;100.00;65435.88;4885511;29;20092;-48
2021/06/21 06:20:17;;;;;;;3.67;2.00;;;;;;;-145.50;100.00;65435.88;4904340;29;20471;-48
2021/06/21 06:23:06;;;;;;;3.20;1.75;;;;;;;-145.50;100.00;65435.88;4902075;29;20087;-47
2021/06/21 06:25:53;;;;;;;2.67;1.98;;;;;;;-145.50;100.00;65435.88;4900446;29;20119;-47
2021/06/21 06:28:40;;;;;;;3.45;2.08;;;;;;;-145.50;100.00;65435.88;4894081;29;20136;-47
2021/06/21 06:31:28;;;;;;;3.05;1.98;;;;;;;-145.50;100.00;65435.88;4903656;29;20159;-47
2021/06/21 06:34:16;;;;;;;4.20;2.00;;;;;;;-145.50;100.00;65435.88;4894569;29;20056;-48
2021/06/21 06:37:03;;;;;;;3.70;1.97;;;;;;;-145.50;100.00;65435.88;4901006;29;20099;-48
2021/06/21 06:39:50;;;;;;;5.00;2.33;;;;;;;-145.50;100.00;65435.88;4893628;29;20142;-48
2021/06/21 06:42:37;;;;;;;3.53;2.20;;;;;;;-145.50;100.00;65435.88;4893142;29;21074;-47
2021/06/21 06:45:25;;;;;;;11.60;5.40;;;;;;;-145.50;100.00;65435.88;4898100;29;20091;-50
2021/06/21 06:48:12;;;;;;;3.00;1.87;;;;;;;-145.50;100.00;65435.88;4901831;29;20060;-50
2021/06/21 06:50:59;;;;;;;2.85;1.73;;;;;;;-145.50;100.00;65435.88;4897856;29;20155;-49
2021/06/21 06:53:50;;;;;;;2.90;1.67;;;;;;;-145.50;100.00;65435.88;4900417;29;20052;-49
2021/06/21 06:59:44;;;;;;;3.45;1.58;;;;;;;-145.50;100.00;65435.88;4901363;29;20079;-50
2021/06/21 07:02:33;;;;;;;4.38;1.73;;;;;;;-145.50;100.00;65435.88;4884358;29;20148;-49
2021/06/21 07:05:24;;;;;;;2.28;1.60;;;;;;;-145.50;100.00;65435.88;4904058;29;20160;-49
2021/06/21 07:08:14;;;;;;;2.85;1.48;;;;;;;-145.50;100.00;65435.88;4905049;29;20059;-50
2021/06/21 07:11:01;;;;;;;3.60;1.75;;;;;;;-145.50;100.00;65435.88;4911523;29;20507;-50
2021/06/21 07:13:49;;;;;;;2.65;1.75;;;;;;;-145.50;100.00;65435.88;4886862;29;20061;-51
2021/06/21 07:16:36;;;;;;;2.72;1.63;;;;;;;-145.50;100.00;65435.88;4905290;29;20171;-49
2021/06/21 07:19:24;;;;;;;2.05;1.55;;;;;;;-145.50;100.00;65435.88;4905597;29;20143;-49
2021/06/21 07:22:11;;;;;;;1.88;1.27;;;;;;;-145.50;100.00;65435.88;4892727;29;20131;-53
2021/06/21 07:24:58;;;;;;;3.05;1.30;;;;;;;-145.50;100.00;65435.88;4902125;29;20234;-50
2021/06/21 07:27:45;;;;;;;1.55;1.08;;;;;;;-145.50;100.00;65435.88;4904309;29;20592;-50
2021/06/21 07:30:34;;;;;;;2.17;1.20;;;;;;;-145.50;100.00;65435.88;4902870;29;20139;-51
2021/06/21 07:33:21;;;;;;;3.38;1.30;;;;;;;-145.50;100.00;65435.88;4907837;29;20611;-49
2021/06/21 07:36:08;;;;;;;3.63;1.50;;;;;;;-145.50;100.00;65435.88;4899007;29;20146;-48
2021/06/21 07:38:55;;;;;;;2.35;1.67;;;;;;;-145.50;100.00;65435.88;4879975;29;20164;-49
2021/06/21 07:41:43;;;;;;;1.80;1.50;;;;;;;-145.50;100.00;65435.88;4893052;29;20146;-52
2021/06/21 07:44:21;;;;;;;2.15;1.38;;;;;;;-145.50;100.00;65435.88;4908173;29;20067;-49
2021/06/21 07:46:48;;;;;;;2.03;1.70;;;;;;;-145.50;100.00;65435.88;4899415;29;20103;-50
2021/06/21 07:49:14;;;;;;;3.20;1.65;;;;;;;-145.50;100.00;65435.88;4895241;29;20489;-49
2021/06/21 07:51:42;;;;;;;2.92;1.58;;;;;;;-145.50;100.00;65435.88;4898194;29;20207;-51
2021/06/21 07:54:08;;;;;;;2.22;1.60;;;;;;;-145.50;100.00;65435.88;4905798;29;20108;-50
2021/06/21 07:56:35;;;;;;;2.53;1.77;;;;;;;-145.50;100.00;65435.88;4905886;29;20183;-50
2021/06/21 07:59:01;;;;;;;3.72;2.13;;;;;;;-145.50;100.00;65435.88;4899314;29;20151;-50
2021/06/21 08:01:28;;;;;;;4.65;1.95;;;;;;;-145.50;100.00;65435.88;4908330;29;20595;-50
2021/06/21 08:03:56;;;;;;;4.10;2.08;;;;;;;-145.50;100.00;65435.88;4902299;29;20296;-50
2021/06/21 08:06:24;;;;;;;3.03;1.80;;;;;;;-145.50;100.00;65435.88;4905077;29;20147;-50
2021/06/21 08:08:50;;;;;;;2.42;1.88;;;;;;;-145.50;100.00;65435.88;4881568;29;20163;-51
2021/06/21 08:11:17;;;;;;;4.25;2.13;;;;;;;-145.50;100.00;65435.88;4907807;29;20496;-50
2021/06/21 08:13:43;;;;;;;3.95;2.30;;;;;;;-145.50;100.00;65435.88;4910325;29;20082;-50
2021/06/21 08:16:10;;;;;;;8.30;4.25;;;;;;;-145.50;100.00;65435.88;4904381;29;20147;-49
2021/06/21 08:18:37;;;;;;;2.30;1.70;;;;;;;-145.50;100.00;65435.88;4909558;29;20059;-49
2021/06/21 08:21:03;;;;;;;2.83;1.88;;;;;;;-145.50;100.00;65435.88;4900607;29;20087;-49
2021/06/21 08:23:31;;;;;;;2.92;1.95;;;;;;;-145.50;100.00;65435.88;4909951;29;20063;-52
2021/06/21 08:25:58;;;;;;;3.08;2.00;;;;;;;-145.50;100.00;65435.88;4902030;29;20056;-49
2021/06/21 08:28:25;;;;;;;3.38;2.10;;;;;;;-145.50;100.00;65435.88;4909934;29;20060;-47
2021/06/21 08:30:52;;;;;;;5.75;2.25;;;;;;;-145.50;100.00;65435.88;4904239;29;20087;-49
2021/06/21 08:33:19;;;;;;;6.88;2.55;;;;;;;-145.50;100.00;65435.88;4898422;29;20760;-50
2021/06/21 08:35:50;;;;;;;4.88;2.65;;;;;;;-145.50;100.00;65435.88;4907471;29;20060;-50
2021/06/21 08:38:16;;;;;;;7.60;2.75;;;;;;;-145.50;100.00;65435.88;4894196;29;20135;-50
2021/06/21 08:40:43;;;;;;;5.70;3.22;;;;;;;-145.50;100.00;65435.88;4909348;29;20131;-50
2021/06/21 08:43:11;;;;;;;6.75;2.70;;;;;;;-145.50;100.00;65435.88;4901143;29;20143;-48
2021/06/21 08:45:37;;;;;;;4.22;2.63;;;;;;;-145.50;100.00;65435.88;4901313;29;20801;-51
2021/06/21 08:48:09;;;;;;;4.28;2.17;;;;;;;-145.50;100.00;65435.88;4907894;29;20131;-50
2021/06/21 08:50:37;;;;;;;5.15;2.60;;;;;;;-145.50;100.00;65435.88;4905614;29;20156;-49
2021/06/21 08:53:05;;;;;;;4.22;2.38;;;;;;;-145.50;100.00;65435.88;4907230;29;20084;-50
2021/06/21 08:55:33;;;;;;;4.78;2.97;;;;;;;-145.50;100.00;65435.88;4903846;29;20087;-50
2021/06/21 08:58:01;;;;;;;3.60;2.33;;;;;;;-145.50;100.00;65435.88;4907685;29;20111;-50
2021/06/21 09:00:27;;;;;;;6.93;2.42;;;;;;;-145.50;100.00;65435.88;4905041;29;20522;-51
2021/06/21 09:02:54;;;;;;;5.50;2.83;;;;;;;-145.50;100.00;65435.88;4908346;29;20135;-51
2021/06/21 09:05:21;;;;;;;4.10;2.80;;;;;;;-145.50;100.00;65435.88;4904415;29;20060;-50
2021/06/21 09:08:00;;;;;;;5.70;3.20;;;;;;;-145.50;100.00;65435.88;4907546;29;20106;-51
2021/06/21 09:10:28;;;;;;;6.22;3.15;;;;;;;-145.50;100.00;65435.88;4907252;29;20473;-52
2021/06/21 09:13:04;;;;;;;6.53;2.80;;;;;;;-145.50;100.00;65435.88;4896142;29;20501;-50
2021/06/21 09:15:37;;;;;;;5.50;3.28;;;;;;;-145.50;100.00;65435.88;4909235;29;20064;-50
2021/06/21 09:18:27;;;;;;;7.72;4.03;;;;;;;-145.50;100.00;65435.88;4903344;29;20131;-50
2021/06/21 09:21:23;;;;;;;5.40;2.92;;;;;;;-145.50;100.00;65435.88;4908896;29;20095;-50
2021/06/21 09:24:29;;;;;;;6.70;3.30;;;;;;;-145.50;100.00;65435.88;4895496;29;20059;-53
2021/06/21 09:26:57;;;;;;;9.77;3.90;;;;;;;-145.50;100.00;65435.88;4889921;29;20158;-51
2021/06/21 09:29:39;;;;;;;3.80;2.33;;;;;;;-145.50;100.00;65435.88;4903430;29;20052;-51
2021/06/21 09:32:43;;;;;;;3.63;2.28;;;;;;;-145.50;100.00;65435.88;4903168;29;20055;-54
2021/06/21 09:35:30;;;;;;;3.13;2.13;;;;;;;-145.50;100.00;65435.88;4903387;29;20060;-52
2021/06/21 09:38:03;;;;;;;3.83;2.38;;;;;;;-145.50;100.00;65435.88;4904610;29;20098;-51
2021/06/21 09:40:37;;;;;;;3.53;2.10;;;;;;;-145.50;100.00;65435.88;4898794;29;20571;-53
2021/06/21 09:43:26;;;;;;;2.42;1.73;;;;;;;-145.50;100.00;65435.88;4890684;29;20659;-51
2021/06/21 09:46:12;;;;;;;4.63;2.30;;;;;;;-145.50;100.00;65435.88;4903355;29;20625;-54
2021/06/21 09:48:48;;;;;;;5.63;2.33;;;;;;;-145.50;100.00;65435.88;4905443;29;20095;-55
2021/06/21 09:51:22;;;;;;;3.83;2.30;;;;;;;-145.50;100.00;65435.88;4894605;29;20158;-56
2021/06/21 09:54:00;;;;;;;6.47;2.75;;;;;;;-145.50;100.00;65435.88;4890790;29;20111;-52
2021/06/21 09:56:47;;;;;;;5.32;2.28;;;;;;;-145.50;100.00;65435.88;4902416;29;20321;-54
2021/06/21 09:59:20;;;;;;;3.22;2.33;;;;;;;-145.50;100.00;65435.88;4911469;29;20459;-56
2021/06/21 10:01:59;;;;;;;4.00;1.98;;;;;;;-145.50;100.00;65435.88;4895907;29;20165;-56
2021/06/21 10:04:26;;;;;;;3.60;2.05;;;;;;;-145.50;100.00;65435.88;4909131;29;20443;-53
2021/06/21 10:06:53;;;;;;;2.88;2.10;;;;;;;-145.50;100.00;65435.88;4900156;29;20163;-54
2021/06/21 10:09:19;;;;;;;4.75;2.33;;;;;;;-145.50;100.00;65435.88;4893093;29;20135;-56
2021/06/21 10:11:46;;;;;;;4.20;2.50;;;;;;;-145.50;100.00;65435.88;4903555;29;20143;-55
2021/06/21 10:14:18;;;;;;;3.22;2.10;;;;;;;-145.50;100.00;65435.88;4899159;29;20091;-56
2021/06/21 10:16:50;;;;;;;5.30;2.58;;;;;;;-145.50;100.00;65435.88;4909363;29;20067;-55
2021/06/21 10:19:18;;;;;;;5.65;2.97;;;;;;;-145.50;100.00;65435.88;4898958;29;20060;-55
2021/06/21 10:21:48;;;;;;;5.80;3.55;;;;;;;-145.50;100.00;65435.88;4902445;29;20500;-56
2021/06/21 10:24:15;;;;;;;5.93;3.15;;;;;;;-145.50;100.00;65435.88;4911349;29;20146;-55
2021/06/21 10:26:49;;;;;;;8.40;3.97;;;;;;;-145.50;100.00;65435.88;4899555;29;20091;-53
2021/06/21 10:29:20;;;;;;;4.45;3.00;;;;;;;-145.50;100.00;65435.88;4911698;29;20092;-51
2021/06/21 10:31:47;;;;;;;4.18;2.85;;;;;;;-145.50;100.00;65435.88;4898685;29;20091;-51
2021/06/21 10:34:17;;;;;;;6.38;2.50;;;;;;;-145.50;100.00;65435.88;4902993;29;20052;-52
2021/06/21 10:36:52;;;;;;;5.40;2.83;;;;;;;-145.50;100.00;65435.88;4902536;29;20090;-53
2021/06/21 10:39:21;;;;;;;4.60;2.72;;;;;;;-145.50;100.00;65435.88;4912400;29;20052;-51
2021/06/21 10:42:06;;;;;;;3.05;1.80;;;;;;;-145.50;100.00;65435.88;4905630;29;20396;-51
2021/06/21 10:44:54;;;;;;;4.07;1.50;;;;;;;-145.50;100.00;65435.88;4911542;29;20060;-51
2021/06/21 10:47:38;;;;;;;3.55;1.70;;;;;;;-145.50;100.00;65435.88;4905971;29;20146;-50
2021/06/21 10:50:06;;;;;;;2.35;1.83;;;;;;;-145.50;100.00;65435.88;4909245;29;20056;-52
2021/06/21 10:52:47;;;;;;;2.80;1.73;;;;;;;-145.50;100.00;65435.88;4910886;29;20095;-51
2021/06/21 10:57:58;;;;;;;2.13;1.50;;;;;;;-145.50;100.00;65435.88;4901123;29;20142;-51
2021/06/21 11:00:41;;;;;;;2.15;1.48;;;;;;;-145.50;100.00;65435.88;4908606;29;20079;-51
2021/06/21 11:03:23;;;;;;;3.40;1.70;;;;;;;-145.50;100.00;65435.88;4895038;29;20536;-51
2021/06/21 11:05:55;;;;;;;3.05;1.80;;;;;;;-145.50;100.00;65435.88;4905632;29;20474;-53
2021/06/21 11:08:24;;;;;;;1.73;1.50;;;;;;;-145.50;100.00;65435.88;4912115;29;20539;-51
2021/06/21 11:10:53;;;;;;;2.50;1.80;;;;;;;-145.50;100.00;65435.88;4898403;29;20058;-51
2021/06/21 11:13:35;;;;;;;2.03;1.80;;;;;;;-145.50;100.00;65435.88;4911036;29;20548;-52
2021/06/21 11:16:18;;;;;;;2.20;2.00;;;;;;;-145.50;100.00;65435.88;4898373;29;20087;-50
2021/06/21 11:18:47;;;;;;;3.67;2.05;;;;;;;-145.50;100.00;65435.88;4901619;29;20063;-53
2021/06/21 11:21:16;;;;;;;2.13;1.52;;;;;;;-145.50;100.00;65435.88;4889480;29;20131;-51
2021/06/21 11:23:45;;;;;;;2.25;1.80;;;;;;;-145.50;100.00;65435.88;4892443;29;20788;-53
2021/06/21 11:26:12;;;;;;;3.50;2.70;;;;;;;-145.50;100.00;65435.88;4905060;29;20052;-51
2021/06/21 11:28:45;;;;;;;4.33;2.00;;;;;;;-145.50;100.00;65435.88;4903496;29;20992;-54
2021/06/21 11:31:28;;;;;;;3.30;2.17;;;;;;;-145.50;100.00;65435.88;4906551;29;20106;-52
2021/06/21 11:33:57;;;;;;;3.20;2.15;;;;;;;-145.50;100.00;65435.88;4900311;29;20055;-53
2021/06/21 11:36:36;;;;;;;3.47;2.17;;;;;;;-145.50;100.00;65435.88;4909837;29;20096;-51
2021/06/21 11:39:27;;;;;;;5.20;3.42;;;;;;;-145.50;100.00;65435.88;4892526;29;20090;-51
2021/06/21 11:41:57;;;;;;;5.72;2.28;;;;;;;-145.50;100.00;65435.88;4906639;29;20088;-52
2021/06/21 11:44:38;;;;;;;5.85;2.30;;;;;;;-145.50;100.00;65435.88;4900668;29;20066;-51
2021/06/21 11:47:14;;;;;;;6.57;2.40;;;;;;;-145.50;100.00;65435.88;4910361;29;20483;-54
2021/06/21 11:49:45;;;;;;;3.40;2.25;;;;;;;-145.50;100.00;65435.88;4904355;29;20082;-51
2021/06/21 11:52:17;;;;;;;3.72;2.00;;;;;;;-145.50;100.00;65435.88;4906514;29;20174;-51